Latest Weather Observations for Mount Isa

IDQ60801

Issued at 12:52 am EST Wednesday 29 January 2020 (issued every 10 minutes, with the page automatically refreshed every 10 minutes)

About weather observations | Map of weather stations | Latest weather observations for QLD | Other Formats
Station Details ID: 029127 Name: MOUNT ISA AERO Lat: -20.68 Lon: 139.49 Height: 340.3 m
Data from the previous 72 hours. | See also: Recent months at Mount Isa
Date/Time
EST
Temp
°C
App
Temp
°C
Dew
Point
°C
Rel
Hum
%
Delta-T
°C
Wind Press
QNH
hPa
Press
MSL
hPa
Rain since
9am
mm
Dir  Spd
km/h
Gust
km/h
Spd
kts
Gust
kts
29/12:34am 24.0 25.3 24.0 100 0.0 SE 24 33 13 18 1006.4 1003.7 17.6
29/12:30am 24.1 25.1 24.1 100 0.0 SE 26 37 14 20 1006.5 1003.8 17.0
29/12:09am 24.0 25.3 24.0 100 0.0 SE 24 39 13 21 1006.7 1004.0 15.2
29/12:00am 24.2 25.5 24.0 99 0.1 SE 24 37 13 20 1006.8 1004.1 14.2
 
Date/Time
EST
Temp
°C
App
Temp
°C
Dew
Point
°C
Rel
Hum
%
Delta-T
°C
Wind Press
QNH
hPa
Press
MSL
hPa
Rain since
9am
mm
Dir  Spd
km/h
Gust
km/h
Spd
kts
Gust
kts
28/11:44pm 24.1 25.0 23.9 99 0.1 SE 26 35 14 19 1006.9 1004.2 13.8
28/11:30pm 24.1 24.5 23.8 98 0.2 ESE 28 46 15 25 1007.0 1004.3 13.2
28/11:27pm 24.1 24.5 23.8 98 0.2 ESE 28 46 15 25 1007.1 1004.4 13.0
28/11:00pm 24.3 26.3 24.0 98 0.2 SE 20 32 11 17 1007.4 1004.7 12.8
28/10:30pm 24.6 27.2 23.9 96 0.5 SE 17 28 9 15 1007.2 1004.5 12.0
28/10:01pm 24.5 27.2 24.2 98 0.2 SE 17 30 9 16 1007.3 1004.6 12.0
28/10:00pm 24.5 27.2 24.2 98 0.2 SE 17 30 9 16 1007.3 1004.6 12.0
28/09:30pm 24.4 26.7 24.1 98 0.2 SE 19 28 10 15 1007.2 1004.5 11.8
28/09:00pm 24.5 26.7 24.0 97 0.3 SE 19 30 10 16 1007.1 1004.4 11.4
28/08:30pm 24.6 26.9 24.1 97 0.3 SE 19 28 10 15 1007.1 1004.4 11.0
28/08:00pm 25.2 25.8 22.1 83 2.1 SE 22 32 12 17 1006.8 1004.1 10.0
28/07:30pm 26.4 27.8 21.8 76 3.1 SE 17 28 9 15 1006.2 1003.5 10.0
28/07:00pm 26.2 27.4 21.4 75 3.2 ESE 17 28 9 15 1005.8 1003.1 10.0
28/06:30pm 26.7 30.6 24.9 90 1.3 SE 13 19 7 10 1005.2 1002.6 9.8
28/06:00pm 26.1 29.8 25.1 94 0.7 SE 15 24 8 13 1005.0 1002.4 9.8
28/05:30pm 25.5 29.4 24.8 96 0.5 SSE 13 19 7 10 1004.9 1002.3 9.8
28/05:00pm 24.7 28.4 24.5 99 0.1 SSE 13 22 7 12 1004.7 1002.0 9.6
28/04:46pm 24.3 28.2 24.3 100 0.0 SE 11 15 6 8 1004.6 1001.9 9.6
28/04:30pm 23.7 25.5 23.5 99 0.1 SE 20 33 11 18 1004.6 1001.9 9.0
28/04:11pm 24.4 23.5 20.7 80 2.5 ESE 26 41 14 22 1004.9 1002.3 1.8
28/04:00pm 28.3 29.9 22.1 69 4.2 ESE 17 26 9 14 1004.4 1001.7 0.4
28/03:30pm 27.9 28.7 22.4 72 3.8 SSE 22 35 12 19 1004.7 1002.0 0.4
28/03:00pm 28.6 29.9 22.3 68 4.3 ESE 19 26 10 14 1004.7 1002.0 0.4
28/02:30pm 27.2 29.6 23.7 81 2.4 E 17 22 9 12 1005.1 1002.5 0.4
28/02:00pm 28.4 29.5 21.9 68 4.4 E 19 26 10 14 1005.5 1002.8 0.2
28/01:30pm 30.0 30.1 21.9 62 5.5 ESE 24 33 13 18 1005.7 1003.0 0.2
28/01:00pm 29.1 28.5 21.3 62 5.3 E 26 33 14 18 1006.2 1003.5 0.2
28/12:30pm 28.8 29.7 21.6 65 4.9 E 19 30 10 16 1006.7 1004.0 0.2
28/12:06pm 28.2 28.5 22.2 70 4.1 ESE 24 35 13 19 1007.0 1004.3 0.2
28/12:00pm 28.4 29.5 21.9 68 4.4 ESE 19 32 10 17 1007.1 1004.4 0.2
28/11:48am 28.1 29.7 22.8 73 3.6 ESE 19 30 10 16 1007.2 1004.5 0.2
28/11:30am 28.0 28.5 22.0 70 4.1 ESE 22 33 12 18 1007.2 1004.5 0.0
28/11:24am 27.8 28.6 22.5 73 3.6 ESE 22 32 12 17 1007.4 1004.7 0.0
28/11:00am 27.0 28.0 22.8 78 2.9 ESE 22 32 12 17 1007.3 1004.6 0.0
28/10:50am 27.2 27.9 22.2 74 3.4 E 22 33 12 18 1007.5 1004.9 0.0
28/10:30am 28.5 29.2 22.3 69 4.2 ESE 22 33 12 18 1007.4 1004.7 0.0
28/10:26am 28.2 29.0 22.4 71 4.0 ESE 22 35 12 19 1007.5 1004.9 0.0
28/10:00am 27.6 28.2 22.8 75 3.3 ESE 24 32 13 17 1007.4 1004.7 0.0
28/09:30am 26.2 27.9 23.1 83 2.1 ESE 19 30 10 16 1007.4 1004.7 0.0
28/09:07am 26.1 28.8 24.1 89 1.4 SE 17 26 9 14 1007.3 1004.6 0.0
28/09:04am 26.2 28.9 24.2 89 1.4 SE 17 26 9 14 1007.3 1004.6 0.0
28/09:00am 26.3 29.2 24.5 90 1.3 SE 17 24 9 13 1007.2 1004.5 0.6
28/08:33am 24.7 27.8 24.2 97 0.3 SE 15 24 8 13 1007.1 1004.4 0.6
28/08:30am 24.8 28.1 24.5 98 0.2 SE 15 19 8 10 1007.2 1004.5 0.6
28/08:11am 24.6 27.4 23.7 95 0.6 SE 15 19 8 10 1007.2 1004.5 0.4
28/08:00am 25.2 28.7 24.2 94 0.7 SE 13 17 7 9 1007.0 1004.3 0.4
28/07:30am 24.7 27.5 23.7 94 0.7 SE 15 22 8 12 1006.7 1004.0 0.4
28/07:00am 24.6 27.7 23.6 94 0.7 SSE 13 17 7 9 1006.1 1003.4 0.4
28/06:30am 24.4 27.9 23.5 95 0.6 ESE 11 19 6 10 1006.0 1003.3 0.4
28/06:00am 24.4 27.9 23.5 95 0.6 E 11 17 6 9 1005.8 1003.1 0.4
28/05:41am 24.4 27.5 23.5 95 0.6 ESE 13 20 7 11 1005.8 1003.1 0.4
28/05:30am 24.3 27.1 23.6 96 0.5 ESE 15 22 8 12 1005.6 1002.9 0.4
28/05:16am 24.2 27.1 23.9 98 0.2 ESE 15 20 8 11 1005.3 1002.7 0.4
28/05:00am 24.3 27.1 23.6 96 0.5 ESE 15 26 8 14 1005.3 1002.7 0.4
28/04:43am 25.6 26.8 22.1 81 2.4 ESE 19 28 10 15 1005.0 1002.4 0.4
28/04:30am 25.4 27.7 22.1 82 2.2 ESE 13 17 7 9 1004.9 1002.3 0.4
28/04:00am 25.5 28.2 22.2 82 2.2 SE 11 19 6 10 1004.9 1002.3 0.4
28/03:57am 25.5 27.8 22.0 81 2.4 SE 13 19 7 10 1005.0 1002.4 0.4
28/03:39am 25.6 27.9 22.1 81 2.4 ESE 13 19 7 10 1005.1 1002.5 0.4
28/03:30am 25.7 27.3 22.2 81 2.4 ESE 17 20 9 11 1005.2 1002.6 0.4
28/03:00am 25.7 27.6 22.0 80 2.5 ESE 15 22 8 12 1005.3 1002.7 0.4
28/02:30am 25.7 27.2 22.0 80 2.5 SE 17 24 9 13 1005.7 1003.0 0.4
28/02:00am 25.8 27.7 22.1 80 2.5 SE 15 20 8 11 1005.9 1003.2 0.4
28/01:30am 26.0 28.4 22.3 80 2.5 SSE 13 22 7 12 1005.9 1003.2 0.4
28/01:00am 25.5 29.1 23.0 86 1.7 SE 9 11 5 6 1005.9 1003.2 0.4
28/12:30am 25.6 29.1 22.9 85 1.8 ESE 9 11 5 6 1006.0 1003.3 0.4
28/12:00am 25.8 29.2 22.7 83 2.1 E 9 9 5 5 1006.2 1003.5 0.4
 
Date/Time
EST
Temp
°C
App
Temp
°C
Dew
Point
°C
Rel
Hum
%
Delta-T
°C
Wind Press
QNH
hPa
Press
MSL
hPa
Rain since
9am
mm
Dir  Spd
km/h
Gust
km/h
Spd
kts
Gust
kts
27/11:30pm 25.8 28.3 22.5 82 2.2 E 13 17 7 9 1006.8 1004.1 0.4
27/11:00pm 26.1 28.3 22.6 81 2.4 E 15 19 8 10 1007.1 1004.4 0.4
27/10:30pm 26.1 30.0 23.0 83 2.1 ESE 7 9 4 5 1007.1 1004.4 0.4
27/10:00pm 26.1 29.3 23.0 83 2.1 NE 11 13 6 7 1006.6 1003.9 0.4
27/09:30pm 26.4 29.3 23.1 82 2.3 ENE 13 17 7 9 1006.8 1004.1 0.4
27/09:00pm 27.4 30.6 23.0 77 3.0 ENE 11 13 6 7 1006.2 1003.5 0.4
27/08:30pm 27.9 31.5 23.1 75 3.3 NE 9 13 5 7 1006.1 1003.4 0.4
27/08:00pm 27.8 31.7 23.0 75 3.3 ESE 7 9 4 5 1005.9 1003.2 0.4
27/07:30pm 28.1 31.8 22.6 72 3.8 SSE 7 11 4 6 1005.5 1002.8 0.4
27/07:00pm 28.2 31.2 22.7 72 3.8 SSE 11 13 6 7 1004.8 1002.2 0.4
27/06:30pm 27.8 30.8 22.7 74 3.5 S 11 17 6 9 1004.7 1002.0 0.4
27/06:00pm 27.5 28.8 22.7 75 3.3 SSE 20 28 11 15 1004.8 1002.2 0.4
27/05:30pm 27.2 28.2 22.8 77 3.0 S 22 26 12 14 1004.6 1001.9 0.4
27/05:00pm 27.0 25.9 22.4 76 3.1 S 32 39 17 21 1004.7 1002.0 0.2
27/04:50pm 27.8 26.6 22.7 74 3.5 S 33 41 18 22 1004.7 1002.0 0.2
27/04:30pm 28.3 28.1 22.8 72 3.8 SSW 28 33 15 18 1004.7 1002.0 0.2
27/04:00pm 28.8 30.4 23.9 75 3.4 SW 22 35 12 19 1004.7 1002.0 0.2
27/03:30pm 31.4 34.6 21.3 55 6.9 SE 6 15 3 8 1004.9 1002.3 0.2
27/03:00pm 31.6 34.5 21.7 55 6.8 SE 9 15 5 8 1004.8 1002.2 0.2
27/02:30pm 31.0 33.6 22.0 58 6.2 ESE 11 17 6 9 1005.3 1002.7 0.2
27/02:00pm 30.4 32.8 21.5 59 6.1 SE 11 19 6 10 1006.0 1003.3 0.2
27/01:30pm 30.5 32.8 22.7 63 5.4 ESE 15 20 8 11 1006.5 1003.8 0.2
27/01:00pm 29.9 32.3 22.3 63 5.2 ESE 13 22 7 12 1006.8 1004.1 0.2
27/12:30pm 29.3 31.8 22.5 67 4.7 ESE 13 20 7 11 1007.2 1004.5 0.2
27/12:00pm 28.8 31.3 22.5 68 4.3 ESE 13 17 7 9 1007.6 1005.0 0.0
27/11:30am 28.2 31.4 24.4 80 2.7 ESE 15 20 8 11 1008.0 1005.4 0.0
27/11:00am 27.9 31.2 24.5 82 2.4 ESE 15 22 8 12 1008.2 1005.6 0.0
27/10:55am 27.8 30.8 24.6 83 2.3 ESE 17 22 9 12 1008.2 1005.6 0.0
27/10:30am 27.2 30.8 24.3 84 2.0 E 13 17 7 9 1008.3 1005.7 0.0
27/10:00am 26.7 29.6 24.4 87 1.6 E 17 26 9 14 1008.4 1005.8 0.0
27/09:30am 26.1 28.8 24.1 89 1.4 E 17 26 9 14 1008.4 1005.8 0.0
27/09:00am 25.7 28.6 24.5 93 0.8 E 17 20 9 11 1008.6 1005.9 15.0
27/08:30am 25.1 28.2 24.1 94 0.7 E 15 22 8 12 1008.4 1005.8 15.0
27/08:09am 25.2 28.4 24.3 95 0.6 E 15 20 8 11 1008.2 1005.6 15.0
27/08:04am 25.1 28.6 24.2 95 0.6 E 13 19 7 10 1008.2 1005.6 15.0
27/08:00am 25.0 28.0 24.0 94 0.7 E 15 19 8 10 1008.3 1005.7 15.0
27/07:34am 24.8 28.1 23.9 95 0.6 E 13 17 7 9 1008.2 1005.6 15.0
27/07:30am 24.8 28.1 23.9 95 0.6 E 13 17 7 9 1008.2 1005.6 15.0
27/07:00am 24.5 29.9 23.8 96 0.5 E 2 9 1 5 1007.9 1005.3 15.0
27/06:30am 24.2 28.0 23.5 96 0.5 E 9 13 5 7 1007.3 1004.6 15.0
27/06:00am 24.1 27.4 23.8 98 0.2 ESE 13 17 7 9 1006.9 1004.2 15.0
27/05:30am 24.2 27.4 23.7 97 0.3 E 13 17 7 9 1006.6 1003.9 15.0
27/05:00am 24.3 27.2 23.8 97 0.3 ENE 15 19 8 10 1006.2 1003.5 15.0
27/04:53am 24.3 27.6 23.8 97 0.3 E 13 17 7 9 1006.2 1003.5 15.0
27/04:30am 24.5 28.0 24.2 98 0.2 E 13 17 7 9 1006.3 1003.6 15.0
27/04:00am 24.8 29.2 24.5 98 0.2 SE 9 11 5 6 1006.2 1003.5 15.0
27/03:30am 25.0 29.4 24.5 97 0.3 SE 9 13 5 7 1006.6 1003.9 15.0
27/03:00am 25.0 29.8 24.5 97 0.4 SSE 7 9 4 5 1006.9 1004.2 15.0
27/02:30am 25.1 29.2 24.6 97 0.3 ESE 11 15 6 8 1007.1 1004.4 15.0
27/02:19am 25.0 28.8 24.7 98 0.2 SSE 13 17 7 9 1007.3 1004.6 15.0
27/02:00am 25.1 28.8 24.6 97 0.4 SSE 13 19 7 10 1007.4 1004.7 15.0
27/01:30am 25.0 29.2 24.8 99 0.1 ESE 11 13 6 7 1007.3 1004.6 15.0
27/01:00am 25.0 29.7 25.0 100 0.0 E 9 11 5 6 1007.5 1004.9 15.0
27/12:30am 24.9 29.6 24.9 100 0.0 SE 9 11 5 6 1008.1 1005.5 15.0
27/12:00am 24.7 29.3 24.7 100 0.0 SSE 9 9 5 5 1008.8 1006.1 15.0
 
Date/Time
EST
Temp
°C
App
Temp
°C
Dew
Point
°C
Rel
Hum
%
Delta-T
°C
Wind Press
QNH
hPa
Press
MSL
hPa
Rain since
9am
mm
Dir  Spd
km/h
Gust
km/h
Spd
kts
Gust
kts
26/11:30pm 24.5 30.6 24.5 100 0.0 CALM 0 0 0 0 1009.2 1006.5 15.0
26/11:00pm 24.1 28.9 24.1 100 0.0 S 6 9 3 5 1009.5 1006.8 14.6
26/10:38pm 24.1 28.3 24.1 100 0.0 NNE 9 13 5 7 1009.7 1007.0 13.2
26/10:30pm 24.0 27.0 24.0 100 0.0 NNE 15 19 8 10 1009.7 1007.0 11.0
26/10:00pm 25.2 30.3 24.9 98 0.2 NE 7 19 4 10 1009.5 1006.8 4.2
26/09:56pm 25.3 30.3 24.8 97 0.4 NE 7 17 4 9 1009.4 1006.7 3.6
26/09:41pm 25.4 28.7 22.5 84 2.0 NNE 9 11 5 6 1009.1 1006.4 1.8
26/09:30pm 26.9 29.0 22.5 77 3.0 NE 15 24 8 13 1008.8 1006.1 0.2
26/09:00pm 27.4 29.7 22.8 76 3.2 NE 15 20 8 11 1008.3 1005.7 0.2
26/08:30pm 28.5 30.8 22.7 71 4.0 N 15 20 8 11 1007.9 1005.3 0.2
26/08:00pm 29.4 33.2 23.4 70 4.2 NE 9 11 5 6 1007.4 1004.7 0.2
26/07:30pm 29.7 33.1 22.7 66 4.8 E 9 11 5 6 1006.7 1004.0 0.2
26/07:00pm 30.3 33.7 22.7 64 5.3 E 9 13 5 7 1006.7 1004.0 0.2
26/06:30pm 31.4 34.9 22.1 57 6.4 ESE 7 9 4 5 1006.4 1003.7 0.2
26/06:00pm 30.9 34.6 22.2 59 6.0 NE 6 11 3 6 1006.0 1003.3 0.2
26/05:30pm 30.6 34.1 22.2 61 5.8 N 7 13 4 7 1005.6 1002.9 0.2
26/05:00pm 30.3 33.3 21.9 60 5.8 NE 9 13 5 7 1005.7 1003.0 0.2
26/04:30pm 30.7 33.4 22.8 62 5.5 NNE 13 17 7 9 1006.0 1003.3 0.2
26/04:00pm 31.3 34.8 24.2 66 5.0 N 13 19 7 10 1006.1 1003.4 0.2
26/03:30pm 30.0 32.1 22.4 63 5.2 ENE 15 20 8 11 1006.6 1003.9 0.2
26/03:00pm 29.7 34.1 25.0 76 3.3 ENE 11 15 6 8 1007.1 1004.4 0.2
26/02:30pm 28.9 34.1 25.7 83 2.3 NE 9 13 5 7 1007.7 1005.1 0.2
26/02:00pm 28.1 32.9 25.1 84 2.1 NNE 9 11 5 6 1008.0 1005.4 0.2
26/01:30pm 27.7 32.5 25.1 86 1.8 NNE 9 15 5 8 1008.4 1005.8 0.2
26/01:04pm 27.4 32.5 25.6 90 1.3 N 9 13 5 7 1008.6 1005.9 0.2
26/01:00pm 27.3 32.5 25.7 91 1.1 NNE 9 13 5 7 1008.6 1005.9 0.2
26/12:36pm 26.9 31.7 25.1 90 1.3 NNE 9 15 5 8 1008.7 1006.0 0.2
26/12:30pm 26.8 31.5 25.0 90 1.3 NNE 9 15 5 8 1008.7 1006.0 0.2
26/12:00pm 26.5 31.7 25.1 92 1.0 ENE 7 11 4 6 1008.9 1006.2 0.2
26/11:30am 25.6 29.4 24.7 95 0.6 ENE 13 17 7 9 1008.7 1006.0 0.2
26/11:00am 25.1 29.0 24.9 99 0.1 ENE 13 15 7 8 1009.2 1006.5 0.2
26/10:30am 24.8 29.2 24.5 98 0.2 ENE 9 13 5 7 1009.7 1007.0 0.0
26/10:00am 24.6 28.9 24.3 98 0.2 NE 9 9 5 5 1010.1 1007.5 0.0
26/09:30am 24.6 28.9 24.3 98 0.2 E 9 11 5 6 1010.1 1007.5 0.0
26/09:00am 24.4 28.8 24.4 100 0.0 E 9 11 5 6 1010.2 1007.6 84.0
26/08:30am 24.3 28.6 24.3 100 0.0 SE 9 11 5 6 1010.4 1007.8 83.8
26/08:00am 24.2 29.4 24.2 100 0.0 SE 4 7 2 4 1010.4 1007.8 83.0
26/07:39am 24.2 29.8 24.2 100 0.0 ESE 2 7 1 4 1010.2 1007.6 82.0
26/07:30am 24.1 30.0 24.1 100 0.0 CALM 0 0 0 0 1010.1 1007.5 81.4
26/07:21am 24.1 30.0 24.1 100 0.0 CALM 0 0 0 0 1010.0 1007.3 81.0
26/07:10am 24.1 30.0 24.1 100 0.0 CALM 0 0 0 0 1009.9 1007.2 80.4
26/07:08am 24.1 30.0 24.1 100 0.0 CALM 0 0 0 0 1009.9 1007.2 80.2
26/07:02am 24.1 30.0 24.1 100 0.0 CALM 0 0 0 0 1009.8 1007.1 79.8
26/07:00am 24.1 30.0 24.1 100 0.0 CALM 0 0 0 0 1009.7 1007.0 79.6
26/06:45am 24.1 30.0 24.1 100 0.0 CALM 0 0 0 0 1009.5 1006.8 79.0
26/06:33am 24.0 29.5 24.0 100 0.0 E 2 6 1 3 1009.3 1006.6 77.8
26/06:30am 24.0 29.5 24.0 100 0.0 E 2 6 1 3 1009.3 1006.6 77.6
26/06:00am 23.9 28.0 23.9 100 0.0 E 9 11 5 6 1008.8 1006.1 76.0
26/05:30am 24.0 28.5 24.0 100 0.0 E 7 9 4 5 1008.4 1005.8 74.6
26/05:00am 23.9 28.0 23.9 100 0.0 E 9 9 5 5 1008.2 1005.6 73.6
26/04:50am 23.8 27.8 23.8 100 0.0 E 9 11 5 6 1008.2 1005.6 73.2
26/04:43am 23.8 27.8 23.8 100 0.0 E 9 11 5 6 1008.2 1005.6 73.0
26/04:30am 23.8 27.1 23.8 100 0.0 E 13 19 7 10 1008.3 1005.7 71.8
26/04:28am 23.9 27.2 23.9 100 0.0 E 13 19 7 10 1008.3 1005.7 71.4
26/04:11am 24.1 27.9 24.1 100 0.0 ENE 11 13 6 7 1008.2 1005.6 69.6
26/04:00am 24.0 28.5 24.0 100 0.0 ENE 7 11 4 6 1008.1 1005.5 69.4
26/03:41am 24.0 28.5 24.0 100 0.0 E 7 9 4 5 1008.1 1005.5 68.8
26/03:31am 24.1 28.7 24.1 100 0.0 E 7 9 4 5 1008.2 1005.6 68.2
26/03:30am 24.1 28.9 24.1 100 0.0 E 6 9 3 5 1008.2 1005.6 68.0
26/03:28am 24.1 28.9 24.1 100 0.0 E 6 9 3 5 1008.2 1005.6 67.8
26/03:00am 24.0 28.1 24.0 100 0.0 SE 9 9 5 5 1008.2 1005.6 65.4
26/02:59am 24.0 28.1 24.0 100 0.0 SE 9 9 5 5 1008.2 1005.6 65.2
26/02:31am 23.9 28.4 23.9 100 0.0 SSE 7 9 4 5 1008.4 1005.8 63.4
26/02:30am 23.9 28.4 23.9 100 0.0 SSE 7 9 4 5 1008.4 1005.8 63.4
26/02:21am 23.8 28.2 23.8 100 0.0 SE 7 9 4 5 1008.4 1005.8 62.8
26/02:02am 23.8 28.8 23.8 100 0.0 SSW 4 7 2 4 1008.7 1006.0 61.0
26/02:00am 23.8 29.2 23.8 100 0.0 SW 2 7 1 4 1008.8 1006.1 60.6
26/01:45am 23.8 29.5 23.8 100 0.0 CALM 0 6 0 3 1009.0 1006.3 60.0
26/01:30am 23.8 27.8 23.8 100 0.0 S 9 9 5 5 1009.0 1006.3 59.2
26/01:03am 23.8 27.8 23.8 100 0.0 ESE 9 11 5 6 1009.2 1006.5 58.4
26/01:00am 23.9 28.4 23.9 100 0.0 ESE 7 11 4 6 1009.2 1006.5 58.2

Other formats

Comma delimited format used in spreadsheet applications
http://www.bom.gov.au/fwo/IDQ60801/IDQ60801.94332.axf

JavaScript Object Notation format (JSON) in row-major order
http://www.bom.gov.au/fwo/IDQ60801/IDQ60801.94332.json

Data quality

Most of these data are generated automatically and are frequently updated. Quality checks on data are not normally performed. It is possible for incorrect values to appear. Refer to information at About Latest Weather Observations and please check the disclaimer before using these data.